Flight Track Log - Related Links

Times and Time Zones

All times are in EDT time to prevent confusion due to time zone crossing. See the TAM3400 flight status page for this flight to view local times or setup timezone preferences in your user account.

Time Position Orientation Groundspeed Altitude Reporting Facility
EDT Latitude Longitude Course Direction KTS MPH feet Rate Location/Type
Sun 09:57:00 AM -15.5281 -47.9015 358° North  Level Estimated
Sun 09:58:00 AM -15.4167 -47.9062 358° North  Level Estimated
Sun 09:59:00 AM -15.3052 -47.9109 358° North  Level Estimated
Sun 10:00:00 AM -15.1938 -47.9157 358° North  Level Estimated
Sun 10:01:00 AM -15.0823 -47.9204 358° North  Level Estimated
Sun 10:02:00 AM -14.9709 -47.9251 358° North  Level Estimated
Sun 10:03:00 AM -14.8594 -47.9299 358° North  Level Estimated
Sun 10:04:00 AM -14.7480 -47.9346 358° North  Level Estimated
Sun 10:05:00 AM -14.6365 -47.9393 358° North  Level Estimated
Sun 10:06:00 AM -14.5251 -47.9440 358° North  Level Estimated
Sun 10:07:00 AM -14.4136 -47.9487 358° North  Level Estimated
Sun 10:08:00 AM -14.3021 -47.9534 358° North  Level Estimated
Sun 10:09:00 AM -14.1907 -47.9581 358° North  Level Estimated
Sun 10:10:00 AM -14.0792 -47.9627 358° North  Level Estimated
Sun 10:11:00 AM -13.9678 -47.9674 358° North  Level Estimated
Sun 10:12:00 AM -13.8563 -47.9721 358° North  Level Estimated
Sun 10:13:00 AM -13.7449 -47.9768 358° North  Level Estimated
Sun 10:14:00 AM -13.6334 -47.9814 358° North  Level Estimated
Sun 10:15:00 AM -13.5220 -47.9861 358° North  Level Estimated
Sun 10:16:00 AM -13.4105 -47.9908 358° North  Level Estimated
Sun 10:17:00 AM -13.2991 -47.9954 358° North  Level Estimated
Sun 10:18:00 AM -13.1876 -48.0001 358° North  Level Estimated
Sun 10:19:00 AM -13.0761 -48.0047 358° North  Level Estimated
Sun 10:20:00 AM -12.9647 -48.0094 358° North  Level Estimated
Sun 10:21:00 AM -12.8532 -48.0140 358° North  Level Estimated
Sun 10:22:00 AM -12.7418 -48.0186 358° North  Level Estimated
Sun 10:23:00 AM -12.6303 -48.0233 358° North  Level Estimated
Sun 10:24:00 AM -12.5189 -48.0279 358° North  Level Estimated
Sun 10:25:00 AM -12.4074 -48.0325 358° North  Level Estimated
Sun 10:26:00 AM -12.2960 -48.0371 358° North  Level Estimated
Sun 10:27:00 AM -12.1845 -48.0417 358° North  Level Estimated
Sun 10:28:00 AM -12.0730 -48.0463 358° North  Level Estimated
Sun 10:29:00 AM -11.9616 -48.0509 358° North  Level Estimated
Sun 10:30:00 AM -11.8501 -48.0556 358° North  Level Estimated
Sun 10:31:00 AM -11.7387 -48.0602 358° North  Level Estimated
Sun 10:32:00 AM -11.6272 -48.0648 358° North  Level Estimated
Sun 10:33:00 AM -11.5158 -48.0693 358° North  Level Estimated
Sun 10:34:00 AM -11.4043 -48.0739 358° North  Level Estimated
Sun 10:35:00 AM -11.2929 -48.0785 358° North  Level Estimated
Sun 10:36:00 AM -11.1814 -48.0831 358° North  Level Estimated
Sun 10:37:00 AM -11.0700 -48.0877 358° North  Level Estimated
Sun 10:38:00 AM -10.9585 -48.0922 358° North  Level Estimated
Sun 10:39:00 AM -10.8470 -48.0968 358° North  Level Estimated
Sun 10:40:00 AM -10.7356 -48.1014 358° North  Level Estimated
Sun 10:41:00 AM -10.6241 -48.1059 358° North  Level Estimated
Sun 10:42:00 AM -10.5127 -48.1105 358° North  Level Estimated
Sun 10:43:00 AM -10.4012 -48.1151 358° North  Level Estimated
Sun 10:44:00 AM -10.2898 -48.1196 358° North  Level Estimated
Sun 10:45:00 AM -10.1783 -48.1242 358° North  Level Estimated
Sun 10:46:00 AM -10.0668 -48.1287 358° North  Level Estimated
Sun 10:47:00 AM -9.9554 -48.1333 358° North  Level Estimated
Sun 10:48:00 AM -9.8439 -48.1378 358° North  Level Estimated
Sun 10:49:00 AM -9.7325 -48.1423 358° North  Level Estimated
Sun 10:50:00 AM -9.6325 -48.1464 358° North  Level Estimated
Sun 10:51:00 AM -9.5326 -48.1505 358° North  Level Estimated
Sun 10:52:00 AM -9.4327 -48.1545 358° North  Level Estimated
Sun 10:53:00 AM -9.3328 -48.1586 358° North  Level Estimated
Sun 10:54:00 AM -9.2328 -48.1626 358° North  Level Estimated
Sun 10:55:00 AM -9.1329 -48.1667 358° North  Level Estimated
Sun 10:56:00 AM -9.0330 -48.1707 358° North  Level Estimated
Sun 10:56:17 AM -8.5478 -48.3823 North 477 549 36,000  Level FlightAware ADS-B (SBIZ / IMP)
Sun 10:56:30 AM -8.5043 -48.3828 North 477 549 36,000  Level FlightAware ADS-B (SBIZ / IMP)
Sun 10:56:53 AM -8.4922 -48.3829 North 477 549 36,000  Level FlightAware ADS-B (SBIZ / IMP)
Sun 10:58:00 AM -8.3037 -48.3855 North 478 550 36,000  Level FlightAware ADS-B (SBIZ / IMP)
Sun 10:58:22 AM -8.2524 -48.3863 North 478 550 36,000  Level FlightAware ADS-B (SBIZ / IMP)
Sun 10:58:42 AM -8.2288 -48.3865 North 478 550 36,000  Level FlightAware ADS-B (SBIZ / IMP)
Sun 10:59:27 AM -8.1137 -48.3881 North 478 550 36,000  Level FlightAware ADS-B (SBIZ / IMP)
Sun 11:01:12 AM -7.8795 -48.3912 North 477 549 36,000  Level FlightAware ADS-B (SBIZ / IMP)
Sun 11:01:35 AM -7.8338 -48.3919 North 477 549 36,000  Level FlightAware ADS-B (SBIZ / IMP)
Sun 11:02:14 AM -7.7410 -48.3933 North 476 548 36,000  Level FlightAware ADS-B (SBIZ / IMP)
Sun 11:02:44 AM -7.6750 -48.3942 North 476 548 36,000  Level FlightAware ADS-B (SBIZ / IMP)
Sun 11:03:09 AM -7.6221 -48.3949 North 476 548 36,000  Level FlightAware ADS-B (SBIZ / IMP)
Sun 11:03:42 AM -7.5467 -48.3959 North 476 548 36,000  Level FlightAware ADS-B (SBIZ / IMP)
Sun 11:04:13 AM -7.4764 -48.3969 North 477 549 36,000  Level FlightAware ADS-B (SBIZ / IMP)
Sun 11:04:39 AM -7.4210 -48.3976 North 477 549 36,000  Level FlightAware ADS-B (SBIZ / IMP)
Sun 11:05:14 AM -7.3416 -48.3987 North 476 548 36,000  Level FlightAware ADS-B (SBIZ / IMP)
Sun 11:05:36 AM -7.2968 -48.3993 North 477 549 36,000  Level FlightAware ADS-B (SBIZ / IMP)
Sun 11:06:14 AM -7.2084 -48.4005 North 478 550 36,000  Level FlightAware ADS-B (SBIZ / IMP)
Sun 11:06:43 AM -7.1477 -48.4014 North 478 550 36,000  Level FlightAware ADS-B (SBIZ / IMP)
Sun 11:07:10 AM -7.0842 -48.4023 North 479 551 36,000  Level FlightAware ADS-B (SBIZ / IMP)
Sun 11:07:46 AM -7.0058 -48.4033 North 479 551 36,000  Level FlightAware ADS-B (SBIZ / IMP)
Sun 11:08:13 AM -6.9573 -48.4039 North 480 552 36,000  Level FlightAware ADS-B (SBIZ / IMP)
Sun 11:08:45 AM -6.8727 -48.4051 North 480 552 36,000  Level FlightAware ADS-B (SBIZ / IMP)
Sun 11:09:12 AM -6.8141 -48.4059 North 480 552 36,000  Level FlightAware ADS-B (SBIZ / IMP)
Sun 11:09:44 AM -6.7408 -48.4069 North 481 554 36,000  Level FlightAware ADS-B (SBIZ / IMP)
Sun 11:10:10 AM -6.6851 -48.4076 North 481 554 36,000  Level FlightAware ADS-B (SBIZ / IMP)
Sun 11:10:43 AM -6.6119 -48.4086 North 482 555 36,000  Level FlightAware ADS-B (SBIZ / IMP)
Sun 11:11:13 AM -6.5464 -48.4095 North 482 555 36,000  Level FlightAware ADS-B (SBIZ / IMP)
Sun 11:11:42 AM -6.4791 -48.4105 North 482 555 36,000  Level FlightAware ADS-B (SBIZ / IMP)
Sun 11:12:16 AM -6.4019 -48.4115 North 482 555 36,000  Level FlightAware ADS-B (SBIZ / IMP)
Sun 11:12:45 AM -6.3615 -48.4121 North 482 555 36,000  Level FlightAware ADS-B (SBIZ / IMP)
Sun 11:13:07 AM -6.3028 -48.4129 North 482 555 36,000  Level FlightAware ADS-B (SBIZ / IMP)
Sun 11:13:44 AM -6.2136 -48.4141 North 482 555 36,000  Level FlightAware ADS-B (SBIZ / IMP)
Sun 11:14:13 AM -6.1392 -48.4150 North 482 555 36,000  Level FlightAware ADS-B (SBIZ / IMP)
Sun 11:14:46 AM -6.0660 -48.4160 North 482 555 36,000  Level FlightAware ADS-B (SBIZ / IMP)
Sun 11:15:08 AM -6.0163 -48.4166 North 483 556 36,000  Level FlightAware ADS-B (SBIZ / IMP)
Sun 11:15:34 AM -5.9665 -48.4174 North 484 557 36,000  Level FlightAware ADS-B (SBIZ / IMP)
Sun 11:16:08 AM -5.8812 -48.4184 North 484 557 36,000  Level FlightAware ADS-B (SBIZ / IMP)
Sun 11:16:39 AM -5.8133 -48.4193 North 484 557 36,000  Level FlightAware ADS-B (SBIZ / IMP)
Sun 11:17:05 AM -5.7586 -48.4200 North 483 556 36,000  Level FlightAware ADS-B (SBIZ / IMP)
Sun 11:17:39 AM -5.6772 -48.4211 North 483 556 36,000  Level FlightAware ADS-B (SBIZ / IMP)
Sun 11:18:11 AM -5.6092 -48.4221 North 483 556 36,000  Level FlightAware ADS-B (SBIZ / IMP)
Sun 11:18:45 AM -5.5299 -48.4232 North 484 557 36,000  Level FlightAware ADS-B (SBIZ / IMP)
Sun 11:19:08 AM -5.4792 -48.4238 North 484 557 36,000  Level FlightAware ADS-B (SBIZ / IMP)
Sun 11:19:37 AM -5.4118 -48.4247 North 484 557 36,000  Level FlightAware ADS-B (SBIZ / IMP)
Sun 11:20:09 AM -5.3395 -48.4257 North 484 557 36,000  Level FlightAware ADS-B (SBIZ / IMP)
Sun 11:20:39 AM -5.2742 -48.4267 North 484 557 36,000  Level FlightAware ADS-B (SBIZ / IMP)
Sun 11:21:15 AM -5.1903 -48.4278 North 484 557 36,000  Level FlightAware ADS-B (SBIZ / IMP)
Sun 11:21:41 AM -5.1336 -48.4286 North 483 556 36,000  Level FlightAware ADS-B (SBIZ / IMP)
Sun 11:22:09 AM -5.0698 -48.4294 North 484 557 36,000  Level FlightAware ADS-B (SBIZ / IMP)
Sun 11:22:43 AM -4.9935 -48.4304 North 483 556 36,000  Level FlightAware ADS-B (SBIZ / IMP)
Sun 11:23:12 AM -4.9285 -48.4312 North 482 555 36,000  Level FlightAware ADS-B (SBIZ / IMP)
Sun 11:23:42 AM -4.8614 -48.4321 North 480 552 36,000  Level FlightAware ADS-B (SBIZ / IMP)
Sun 11:24:16 AM -4.7882 -48.4331 North 480 552 36,000  Level FlightAware ADS-B (SBIZ / IMP)
Sun 11:24:42 AM -4.7302 -48.4339 North 479 551 36,000  Level FlightAware ADS-B (SBIZ / IMP)
Sun 11:25:14 AM -4.6589 -48.4349 North 478 550 36,000  Level FlightAware ADS-B (SBIZ / IMP)
Sun 11:25:43 AM -4.5938 -48.4357 North 478 550 36,000  Level FlightAware ADS-B (SBIZ / IMP)
Sun 11:26:11 AM -4.5335 -48.4366 North 478 550 36,000  Level FlightAware ADS-B (SBIZ / IMP)
Sun 11:26:46 AM -4.4524 -48.4377 North 477 549 36,000  Level FlightAware ADS-B (SBIZ / IMP)
Sun 11:27:13 AM -4.3940 -48.4385 North 477 549 36,000  Level FlightAware ADS-B (SBIZ / IMP)
Sun 11:27:40 AM -4.3347 -48.4393 North 476 548 36,000  Level FlightAware ADS-B (SBIZ / IMP)
Sun 11:28:14 AM -4.2615 -48.4403 North 475 547 36,000  Level FlightAware ADS-B (SBIZ / IMP)
Sun 11:28:43 AM -4.1952 -48.4411 North 475 547 36,000  Level FlightAware ADS-B (SBIZ / IMP)
Sun 11:29:09 AM -4.1404 -48.4418 North 474 545 36,000  Level FlightAware ADS-B (SBIZ / IMP)
Sun 11:29:41 AM -4.0672 -48.4428 North 474 545 36,000  Level FlightAware ADS-B (SBIZ / IMP)
Sun 11:30:12 AM -4.0022 -48.4437 North 475 547 36,000  Level FlightAware ADS-B (SBIZ / IMP)
Sun 11:30:42 AM -3.9327 -48.4446 North 475 547 36,000  Level FlightAware ADS-B (SBIZ / IMP)
Sun 11:31:13 AM -3.8628 -48.4454 North 475 547 36,000  Level FlightAware ADS-B (SBIZ / IMP)
Sun 11:31:44 AM -3.7946 -48.4464 North 476 548 36,000  Level FlightAware ADS-B (SBIZ / IMP)
Sun 11:32:14 AM -3.7314 -48.4472 North 475 547 36,000  Level FlightAware ADS-B (SBIZ / IMP)
Sun 11:32:46 AM -3.6605 -48.4482 359° North 474 545 36,000  Level FlightAware ADS-B (SBIZ / IMP)
Sun 11:33:38 AM -3.5459 -48.4551 357° North 473 544 36,000  Level FlightAware ADS-B (SBIZ / IMP)
Sun 11:34:11 AM -3.4771 -48.4593 357° North 472 543 36,000 -200 Level FlightAware ADS-B (SBIZ / IMP)
Sun 11:34:38 AM -3.4153 -48.4628 357° North 475 547 35,800 -1,527 Descending FlightAware ADS-B (SBIZ / IMP)
Sun 11:35:06 AM -3.3529 -48.4661 357° North 478 550 34,600 -3,000 Descending FlightAware ADS-B (SBIZ / IMP)
Sun 11:35:34 AM -3.2890 -48.4696 357° North 485 558 33,000 -3,429 Descending FlightAware ADS-B (SBIZ / IMP)
Sun 11:36:09 AM -3.2096 -48.4740 357° North 493 567 31,000 -3,400 Descending FlightAware ADS-B (SBIZ / IMP)
Sun 11:36:34 AM -3.1542 -48.4771 357° North 494 568 29,600 -2,900 Descending FlightAware ADS-B (SBIZ / IMP)
Sun 11:37:09 AM -3.0723 -48.4815 357° North 482 555 28,100 -2,585 Descending FlightAware ADS-B (SBIZ / IMP)
Sun 11:37:39 AM -3.0057 -48.4852 357° North 474 545 26,800 -3,500 Descending FlightAware ADS-B (SBIZ / IMP)
Sun 11:38:09 AM -2.9398 -48.4889 357° North 485 558 24,600 -2,814 Descending FlightAware ADS-B (SBIZ / IMP)
Sun 11:40:53 AM -2.5881 -48.5084 357° North 447 514 17,700 -2,580 Descending FlightAware ADS-B
Sun 11:41:22 AM -2.5298 -48.5116 357° North 442 509 16,300 -2,300 Descending FlightAware ADS-B
Sun 11:41:53 AM -2.4689 -48.5151 357° North 421 484 15,400 -1,729 Descending FlightAware ADS-B
Sun 11:42:21 AM -2.4130 -48.5181 357° North 401 461 14,600 -2,237 Descending FlightAware ADS-B
Sun 11:42:52 AM -2.3547 -48.5212 357° North 400 460 13,200 -2,586 Descending FlightAware ADS-B
Sun 11:43:19 AM -2.3040 -48.5242 357° North 395 455 12,100 -2,036 Descending FlightAware ADS-B
Sun 11:43:48 AM -2.2550 -48.5270 357° North 379 436 11,300 -1,345 Descending FlightAware ADS-B
Sun 11:44:17 AM -2.2032 -48.5300 357° North 357 411 10,800 -915 Descending FlightAware ADS-B
Sun 11:44:47 AM -2.1558 -48.5323 358° North 334 384 10,400 -618 Descending FlightAware ADS-B
Sun 11:45:25 AM -2.1001 -48.5354 357° North 313 360 10,100 -508 Descending FlightAware ADS-B
Sun 11:45:46 AM -2.0702 -48.5371 357° North 307 353 9,900 -500 Descending FlightAware ADS-B
Sun 11:46:01 AM -2.0478 -48.5384 357° North 305 351 9,800 -387 Descending FlightAware ADS-B
Sun 11:46:17 AM -2.0263 -48.5395 357° North 305 351 9,700 -387 Descending FlightAware ADS-B
Sun 11:46:32 AM -2.0046 -48.5407 357° North 301 346 9,600 -581 Descending FlightAware ADS-B
Sun 11:46:48 AM -1.9828 -48.5418 357° North 299 344 9,400 -621 Descending FlightAware ADS-B
Sun 11:47:01 AM -1.9639 -48.5429 357° North 298 343 9,300 -444 Descending FlightAware ADS-B
Sun 11:47:15 AM -1.9438 -48.5439 357° North 298 343 9,200 -857 Descending FlightAware ADS-B
Sun 11:47:29 AM -1.9258 -48.5448 357° North 300 345 8,900 -1,313 Descending FlightAware ADS-B
Sun 11:47:47 AM -1.9017 -48.5461 357° North 298 343 8,500 -1,500 Descending FlightAware ADS-B
Sun 11:48:01 AM -1.8821 -48.5472 357° North 296 341 8,100 -1,543 Descending FlightAware ADS-B
Sun 11:48:22 AM -1.8523 -48.5488 357° North 292 336 7,600 -1,500 Descending FlightAware ADS-B
Sun 11:48:37 AM -1.8320 -48.5500 357° North 291 335 7,200 -1,655 Descending FlightAware ADS-B
Sun 11:48:51 AM -1.8123 -48.5510 358° North 289 333 6,800 -2,000 Descending FlightAware ADS-B
Sun 11:49:07 AM -1.7918 -48.5520 358° North 290 334 6,200 -2,400 Descending FlightAware ADS-B
Sun 11:49:21 AM -1.7721 -48.5531 357° North 289 333 5,600 -2,438 Descending FlightAware ADS-B
Sun 11:49:39 AM -1.7481 -48.5569 349° North 289 333 4,900 -2,182 Descending FlightAware ADS-B
Sun 11:49:54 AM -1.7292 -48.5607 349° North 286 329 4,400 -1,714 Descending FlightAware ADS-B
Sun 11:50:14 AM -1.7038 -48.5658 349° North 280 322 3,900 -1,610 Descending FlightAware ADS-B
Sun 11:50:35 AM -1.6776 -48.5711 349° North 281 323 3,300 -1,317 Descending FlightAware ADS-B
Sun 11:50:55 AM -1.6505 -48.5763 350° North 272 313 3,000 -833 Descending FlightAware ADS-B
Sun 11:51:11 AM -1.6304 -48.5802 349° North 276 318 2,800 -545 Descending FlightAware ADS-B
Sun 11:51:28 AM -1.6098 -48.5840 350° North 274 315 2,700 -387 Descending FlightAware ADS-B
Sun 11:51:42 AM -1.5919 -48.5874 350° North 273 314 2,600 -414 Descending FlightAware ADS-B
Sun 11:51:57 AM -1.5746 -48.5907 350° North 272 313 2,500 -600 Descending FlightAware ADS-B
Sun 11:52:12 AM -1.5554 -48.5943 350° North 272 313 2,300 -667 Descending FlightAware ADS-B
Sun 11:52:24 AM -1.5396 -48.5960 359° North 271 312 2,200 -353 Descending FlightAware ADS-B
Sun 11:52:29 AM -1.5338 -48.5954 North 269 310 2,200 -545 Level FlightAware ADS-B
Sun 11:52:35 AM -1.5266 -48.5934 19° North 266 306 2,100 -500 Descending FlightAware ADS-B
Sun 11:52:41 AM -1.5202 -48.5902 27° Northeast 264 304 2,100 -462 Level FlightAware ADS-B
Sun 11:52:48 AM -1.5129 -48.5856 32° Northeast 258 297 2,000 -273 Descending FlightAware ADS-B
Sun 11:53:03 AM -1.4977 -48.5771 27° Northeast 241 277 2,000  Level FlightAware ADS-B
Sun 11:53:21 AM -1.4809 -48.5679 30° Northeast 221 254 2,000  Level FlightAware ADS-B
Sun 11:53:35 AM -1.4686 -48.5601 33° Northeast 205 236 2,000 188 Level FlightAware ADS-B
Sun 11:53:53 AM -1.4566 -48.5520 35° Northeast 175 201 2,100 -343 Climbing FlightAware ADS-B
Sun 11:54:10 AM -1.4465 -48.5436 41° Northeast 161 185 1,800 -909 Descending FlightAware ADS-B
Sun 11:54:26 AM -1.4379 -48.5353 45° Northeast 147 169 1,600 -909 Descending FlightAware ADS-B
Sun 11:54:43 AM -1.4302 -48.5274 46° Northeast 144 166 1,300 -833 Descending FlightAware ADS-B
Sun 11:55:02 AM -1.4213 -48.5183 44° Northeast 140 161 1,100 -667 Descending FlightAware ADS-B
Sun 11:55:19 AM -1.4133 -48.5104 44° Northeast 141 162 900 -857 Descending FlightAware ADS-B
Sun 11:55:37 AM -1.4053 -48.5023 45° Northeast 143 165 600 -1,029 Descending FlightAware ADS-B
Sun 11:55:54 AM -1.3972 -48.4942 45° Northeast 143 165 300 -882 Descending FlightAware ADS-B
Sun 11:56:11 AM -1.3900 -48.4870 45° Northeast 140 161 100 -706 Descending FlightAware ADS-B

Login

Don't have an account? Register now (free) for customized features, flight alerts, and more!